Weather at Stanthorpe Airport

Public forecast

Using degrees Celsius for public forecast. Weather courtesy of forecast.io.

Closest aviation weather report (METAR) to Stanthorpe Airport

Closest report is Toowoomba Wellcamp Airport, 64.5 nm (119.5 km) N.

2024/06/17 04:30 (retrieved 24 minutes ago)

YBWW 170430Z AUTO 25017KT 9999 // NCD 15/M02 Q1013 RF000/0000

Closest aviation forecast (TAF) to Stanthorpe Airport

Forecast is more than 6 hours old.

Closest forecast is Koumac Airport, 826.1 nm (1,529.9 km) ENE.

2024/06/16 18:00 Ammendment (retrieved 11 hours ago)

TAF AMD NWWE 161700Z 1618/1718 CNL TAF AMD NWWK 161700Z 1618/1718 CNL